Robijn — PBEJ — position and weather

sailwx.info

Track history (hours):
 
Tides and Currents Weather Stations Pressure Air Temp Water Temp Dewpoint Dewpoint Depression Visibility Wind Speed Wind Dir Waves Ship Positions

Robijn

Last reported at 2014-Jul-24 18:33 UTC. Time now 2014-Jul-24 19:18 UTC.
Position N 51°28' E 003°41'.

Length 90 m; draft 5.2 m.

Type: Cargo ship. MMSI: 245909000.

Date/timePositionNaut miles runAvg speedWind from/ knotsBaromVisibWave heightAir tempDewpointWater temp
2014-Jul-24 18:33N 51°28' E 003°41'0 0.0
2014-Jul-24 17:33N 51°28' E 003°41'0 0.0
2014-Jul-24 16:33N 51°28' E 003°41'0 0.0
2014-Jul-24 15:33N 51°28' E 003°42'0 0.0
2014-Jul-24 14:33N 51°28' E 003°41'0 0.0
2014-Jul-24 13:30N 51°28' E 003°42'0 0.0
2014-Jul-24 12:33N 51°28' E 003°41'0 0.0
2014-Jul-24 11:33N 51°28' E 003°41'0 0.0
2014-Jul-24 10:30N 51°28' E 003°41'0 0.0
2014-Jul-24 09:33N 51°28' E 003°42'0 0.0
2014-Jul-24 08:33N 51°28' E 003°42'0 0.0
2014-Jul-24 07:30N 51°28' E 003°42'0 0.0
2014-Jul-24 06:33N 51°28' E 003°42'0 0.0
2014-Jul-24 05:30N 51°28' E 003°41'0 0.0
2014-Jul-24 04:33N 51°28' E 003°41'0 0.0
2014-Jul-24 03:33N 51°28' E 003°41'0 0.4
2014-Jul-24 02:33N 51°28' E 003°41'7 6.8
2014-Jul-24 01:33N 51°29' E 003°30'9 9.4
2014-Jul-24 00:33N 51°37' E 003°22'9 9.1
2014-Jul-23 23:34N 51°45' E 003°16'9 8.6
2014-Jul-23 22:33N 51°53' E 003°18'9 9.2
2014-Jul-23 21:33N 52°02' E 003°20'10 9.9
2014-Jul-23 20:31N 52°13' E 003°23'1010.4
2014-Jul-23 19:33N 52°23' E 003°26'1110.8
2014-Jul-23 18:33N 52°33' E 003°29'1110.6
2014-Jul-23 17:33N 52°42' E 003°39'1010.3
2014-Jul-23 16:33N 52°50' E 003°50'9 9.5
2014-Jul-23 15:33N 52°57' E 004°01'9 8.9
2014-Jul-23 14:34N 53°03' E 004°12'9 8.9
2014-Jul-23 13:33N 53°08' E 004°23'9 8.7
2014-Jul-23 12:33N 53°16' E 004°29'1010.0
2014-Jul-23 11:34N 53°25' E 004°36'1110.6
2014-Jul-23 10:34N 53°31' E 004°51'1111.2
2014-Jul-23 09:33N 53°35' E 005°09'1111.0
2014-Jul-23 08:34N 53°38' E 005°26'1010.4
2014-Jul-23 07:33N 53°41' E 005°43'9 9.5
2014-Jul-23 06:34N 53°45' E 005°58'9 9.1
2014-Jul-23 05:34N 53°48' E 006°13'9 8.7
2014-Jul-23 04:34N 53°50' E 006°27'9 9.1
2014-Jul-23 03:33N 53°54' E 006°41'13 9.8
2014-Jul-23 02:13N 53°57' E 007°03'810.5
2014-Jul-23 01:28N 53°59' E 007°16'1010.7
2014-Jul-23 00:34N 54°01' E 007°32'1110.6
2014-Jul-22 23:33N 54°02' E 007°50'1111.0
2014-Jul-22 22:34N 54°01' E 008°09'1111.3
2014-Jul-22 21:33N 53°59' E 008°27'9 9.0
2014-Jul-22 20:34N 53°55' E 008°41'7 7.2
2014-Jul-22 19:34N 53°50' E 008°51'7 7.3
2014-Jul-22 18:33N 53°52' E 009°03'4 3.9
2014-Jul-22 17:33N 53°54' E 009°09'6 6.0
2014-Jul-22 16:32N 53°58' E 009°16'9 8.6
2014-Jul-22 15:32N 54°06' E 009°20'4 3.8
2014-Jul-22 14:33N 54°09' E 009°23'41 4.4
2014-Jul-22 05:23N 54°31' E 010°23'810.1
2014-Jul-22 04:33N 54°34' E 010°36'9 9.4
2014-Jul-22 03:33N 54°35' E 010°52'1010.5
2014-Jul-22 02:33N 54°36' E 011°10'1010.4
2014-Jul-22 01:33N 54°32' E 011°27'10 9.9
2014-Jul-22 00:34N 54°29' E 011°43'10 9.7
2014-Jul-21 23:34N 54°27' E 011°59'8 8.3
2014-Jul-21 22:34N 54°31' E 012°11'10 9.5
2014-Jul-21 21:34N 54°39' E 012°20'10 9.9
2014-Jul-21 20:33N 54°45' E 012°35'2 9.9
2014-Jul-21 20:18N 54°46' E 012°38'7 9.6
2014-Jul-21 19:34N 54°50' E 012°49'10 9.5
2014-Jul-21 18:33N 54°52' E 013°05'10 9.4
2014-Jul-21 17:31N 54°55' E 013°21'9 9.4
2014-Jul-21 16:34N 54°59' E 013°35'11 9.7
2014-Jul-21 15:27N 55°03' E 013°53'8 9.3
2014-Jul-21 14:34N 55°06' E 014°06'10 9.7
2014-Jul-21 13:34N 55°14' E 014°16'10 9.8
2014-Jul-21 12:34N 55°22' E 014°27'10 9.6
2014-Jul-21 11:33N 55°28' E 014°39'10 9.5
2014-Jul-21 10:32N 55°33' E 014°54'19 9.7
2014-Jul-21 08:33N 55°43' E 015°24'1210.1
2014-Jul-21 07:24N 55°48' E 015°42'1110.1
2014-Jul-21 06:18N 55°54' E 015°59'810.2
2014-Jul-21 05:34N 55°58' E 016°11'1010.1
2014-Jul-21 04:33N 56°03' E 016°26'1010.1
2014-Jul-21 03:31N 56°08' E 016°42'1110.0
2014-Jul-21 02:26N 56°16' E 016°57'9 9.8
2014-Jul-21 01:33N 56°21' E 017°09'10 9.9
2014-Jul-21 00:31N 56°27' E 017°24'1010.1
2014-Jul-20 23:33N 56°33' E 017°37'1010.1
2014-Jul-20 22:32N 56°39' E 017°52'12 9.9
2014-Jul-20 21:19N 56°47' E 018°10'7 9.7
2014-Jul-20 20:33N 56°51' E 018°21'10 9.7
2014-Jul-20 19:33N 56°58' E 018°33'10 9.7
2014-Jul-20 18:34N 57°05' E 018°45'10 9.7
2014-Jul-20 17:30N 57°13' E 018°57'175 9.7
2014-Jul-19 23:29N 59°20' E 022°47'10 9.7
2014-Jul-19 22:26N 59°24' E 023°06'9 9.6
2014-Jul-19 21:31N 59°27' E 023°22'9 9.8
2014-Jul-19 20:34N 59°31' E 023°39'10 9.9
2014-Jul-19 19:34N 59°34' E 023°57'11 9.8
2014-Jul-19 18:28N 59°38' E 024°17'8 9.0
2014-Jul-19 17:32N 59°42' E 024°32'10 9.8
2014-Jul-19 16:31N 59°44' E 024°51'9 9.7
2014-Jul-19 15:33N 59°44' E 025°10'9 9.2
2014-Jul-19 14:33N 59°44' E 025°28'10 9.7
2014-Jul-19 13:34N 59°44' E 025°47'10 9.9
2014-Jul-19 12:33N 59°44' E 026°07'9 9.4
2014-Jul-19 11:34N 59°41' E 026°24'10 9.6
2014-Jul-19 10:33N 59°32' E 026°33'1 0.5
2014-Jul-19 09:33N 59°32' E 026°33'0 0.0
2014-Jul-19 08:33N 59°32' E 026°33'0 0.0
2014-Jul-19 07:33N 59°32' E 026°33'0 0.0
2014-Jul-19 06:27N 59°32' E 026°33'0 0.0
2014-Jul-19 05:27N 59°32' E 026°33'0 0.0
2014-Jul-19 04:33N 59°32' E 026°33'0 0.0
2014-Jul-19 03:33N 59°32' E 026°33'0 0.0
2014-Jul-19 02:32N 59°32' E 026°33'0 0.0
2014-Jul-19 01:33N 59°32' E 026°33'0 0.0
2014-Jul-19 00:33N 59°32' E 026°33'0 0.0
2014-Jul-18 23:32N 59°32' E 026°33'0 0.0
2014-Jul-18 22:32N 59°32' E 026°33'0 0.0
2014-Jul-18 21:32N 59°32' E 026°33'0 0.0
2014-Jul-18 20:33N 59°32' E 026°33'0 0.0
2014-Jul-18 19:26N 59°32' E 026°33'0 0.0
2014-Jul-18 18:32N 59°32' E 026°33'0 0.0
2014-Jul-18 17:32N 59°32' E 026°33'0 0.0
2014-Jul-18 16:32N 59°32' E 026°33'0 0.0
2014-Jul-18 14:29N 59°32' E 026°33'0 0.0
2014-Jul-18 13:32N 59°32' E 026°33'1 0.6
2014-Jul-18 12:33N 59°32' E 026°33'10 9.8
2014-Jul-18 11:33N 59°41' E 026°25'10 9.7
2014-Jul-18 10:31N 59°45' E 026°07'1010.0
2014-Jul-18 09:33N 59°45' E 025°48'4710.6
2014-Jul-18 05:06N 59°42' E 024°14'610.8
2014-Jul-18 04:33N 59°40' E 024°03'1110.7
2014-Jul-18 03:33N 59°38' E 023°42'1110.6
2014-Jul-18 02:33N 59°41' E 023°22'1110.5
2014-Jul-18 01:33N 59°45' E 023°03'9 9.0
2014-Jul-18 00:33N 59°52' E 022°51'1111.3
2014-Jul-17 23:33N 59°54' E 022°29'  
2014-Jul-15 16:32N 57°28' E 017°52'10 9.8
2014-Jul-15 15:33N 57°20' E 017°45'10 9.7
2014-Jul-15 14:33N 57°11' E 017°39'10 9.7
2014-Jul-15 13:33N 57°01' E 017°33'10 9.8
2014-Jul-15 12:32N 56°52' E 017°26'60 9.8
2014-Jul-15 06:23N 55°60' E 016°33'8 9.3
2014-Jul-15 05:33N 55°56' E 016°21'10 9.7
2014-Jul-15 04:33N 55°51' E 016°07'11 9.4
2014-Jul-15 03:21N 55°46' E 015°49'7 9.3
2014-Jul-15 02:33N 55°42' E 015°38'28 9.4
2014-Jul-14 23:33N 55°28' E 014°55'9 9.4
2014-Jul-14 22:33N 55°23' E 014°40'9 9.2
2014-Jul-14 21:33N 55°16' E 014°30'10 9.1
2014-Jul-14 20:26N 55°08' E 014°19'12 9.5
2014-Jul-14 19:10N 54°60' E 014°04'6 9.6
2014-Jul-14 18:33N 54°57' E 013°55'  
Track history (hours):
 
Tides and Currents Weather Stations Pressure Air Temp Water Temp Dewpoint Dewpoint Depression Visibility Wind Speed Wind Dir Waves Ship Positions

Robijn

Last reported at 2014-Jul-24 18:33 UTC. Time now 2014-Jul-24 19:18 UTC.
Position N 51°28' E 003°41'.

Length 90 m; draft 5.2 m.

Type: Cargo ship. MMSI: 245909000.

Date/timePositionNaut miles runAvg speedWind from/ knotsBaromVisibWave heightAir tempDewpointWater temp
2014-Jul-24 18:33N 51°28' E 003°41'0 0.0
2014-Jul-24 17:33N 51°28' E 003°41'0 0.0
2014-Jul-24 16:33N 51°28' E 003°41'0 0.0
2014-Jul-24 15:33N 51°28' E 003°42'0 0.0
2014-Jul-24 14:33N 51°28' E 003°41'0 0.0
2014-Jul-24 13:30N 51°28' E 003°42'0 0.0
2014-Jul-24 12:33N 51°28' E 003°41'0 0.0
2014-Jul-24 11:33N 51°28' E 003°41'0 0.0
2014-Jul-24 10:30N 51°28' E 003°41'0 0.0
2014-Jul-24 09:33N 51°28' E 003°42'0 0.0
2014-Jul-24 08:33N 51°28' E 003°42'0 0.0
2014-Jul-24 07:30N 51°28' E 003°42'0 0.0
2014-Jul-24 06:33N 51°28' E 003°42'0 0.0
2014-Jul-24 05:30N 51°28' E 003°41'0 0.0
2014-Jul-24 04:33N 51°28' E 003°41'0 0.0
2014-Jul-24 03:33N 51°28' E 003°41'0 0.4
2014-Jul-24 02:33N 51°28' E 003°41'7 6.8
2014-Jul-24 01:33N 51°29' E 003°30'9 9.4
2014-Jul-24 00:33N 51°37' E 003°22'9 9.1
2014-Jul-23 23:34N 51°45' E 003°16'9 8.6
2014-Jul-23 22:33N 51°53' E 003°18'9 9.2
2014-Jul-23 21:33N 52°02' E 003°20'10 9.9
2014-Jul-23 20:31N 52°13' E 003°23'1010.4
2014-Jul-23 19:33N 52°23' E 003°26'1110.8
2014-Jul-23 18:33N 52°33' E 003°29'1110.6
2014-Jul-23 17:33N 52°42' E 003°39'1010.3
2014-Jul-23 16:33N 52°50' E 003°50'9 9.5
2014-Jul-23 15:33N 52°57' E 004°01'9 8.9
2014-Jul-23 14:34N 53°03' E 004°12'9 8.9
2014-Jul-23 13:33N 53°08' E 004°23'9 8.7
2014-Jul-23 12:33N 53°16' E 004°29'1010.0
2014-Jul-23 11:34N 53°25' E 004°36'1110.6
2014-Jul-23 10:34N 53°31' E 004°51'1111.2
2014-Jul-23 09:33N 53°35' E 005°09'1111.0
2014-Jul-23 08:34N 53°38' E 005°26'1010.4
2014-Jul-23 07:33N 53°41' E 005°43'9 9.5
2014-Jul-23 06:34N 53°45' E 005°58'9 9.1
2014-Jul-23 05:34N 53°48' E 006°13'9 8.7
2014-Jul-23 04:34N 53°50' E 006°27'9 9.1
2014-Jul-23 03:33N 53°54' E 006°41'13 9.8
2014-Jul-23 02:13N 53°57' E 007°03'810.5
2014-Jul-23 01:28N 53°59' E 007°16'1010.7
2014-Jul-23 00:34N 54°01' E 007°32'1110.6
2014-Jul-22 23:33N 54°02' E 007°50'1111.0
2014-Jul-22 22:34N 54°01' E 008°09'1111.3
2014-Jul-22 21:33N 53°59' E 008°27'9 9.0
2014-Jul-22 20:34N 53°55' E 008°41'7 7.2
2014-Jul-22 19:34N 53°50' E 008°51'7 7.3
2014-Jul-22 18:33N 53°52' E 009°03'4 3.9
2014-Jul-22 17:33N 53°54' E 009°09'6 6.0
2014-Jul-22 16:32N 53°58' E 009°16'9 8.6
2014-Jul-22 15:32N 54°06' E 009°20'4 3.8
2014-Jul-22 14:33N 54°09' E 009°23'41 4.4
2014-Jul-22 05:23N 54°31' E 010°23'810.1
2014-Jul-22 04:33N 54°34' E 010°36'9 9.4
2014-Jul-22 03:33N 54°35' E 010°52'1010.5
2014-Jul-22 02:33N 54°36' E 011°10'1010.4
2014-Jul-22 01:33N 54°32' E 011°27'10 9.9
2014-Jul-22 00:34N 54°29' E 011°43'10 9.7
2014-Jul-21 23:34N 54°27' E 011°59'8 8.3
2014-Jul-21 22:34N 54°31' E 012°11'10 9.5
2014-Jul-21 21:34N 54°39' E 012°20'10 9.9
2014-Jul-21 20:33N 54°45' E 012°35'2 9.9
2014-Jul-21 20:18N 54°46' E 012°38'7 9.6
2014-Jul-21 19:34N 54°50' E 012°49'10 9.5
2014-Jul-21 18:33N 54°52' E 013°05'10 9.4
2014-Jul-21 17:31N 54°55' E 013°21'9 9.4
2014-Jul-21 16:34N 54°59' E 013°35'11 9.7
2014-Jul-21 15:27N 55°03' E 013°53'8 9.3
2014-Jul-21 14:34N 55°06' E 014°06'10 9.7
2014-Jul-21 13:34N 55°14' E 014°16'10 9.8
2014-Jul-21 12:34N 55°22' E 014°27'10 9.6
2014-Jul-21 11:33N 55°28' E 014°39'10 9.5
2014-Jul-21 10:32N 55°33' E 014°54'19 9.7
2014-Jul-21 08:33N 55°43' E 015°24'1210.1
2014-Jul-21 07:24N 55°48' E 015°42'1110.1
2014-Jul-21 06:18N 55°54' E 015°59'810.2
2014-Jul-21 05:34N 55°58' E 016°11'1010.1
2014-Jul-21 04:33N 56°03' E 016°26'1010.1
2014-Jul-21 03:31N 56°08' E 016°42'1110.0
2014-Jul-21 02:26N 56°16' E 016°57'9 9.8
2014-Jul-21 01:33N 56°21' E 017°09'10 9.9
2014-Jul-21 00:31N 56°27' E 017°24'1010.1
2014-Jul-20 23:33N 56°33' E 017°37'1010.1
2014-Jul-20 22:32N 56°39' E 017°52'12 9.9
2014-Jul-20 21:19N 56°47' E 018°10'7 9.7
2014-Jul-20 20:33N 56°51' E 018°21'10 9.7
2014-Jul-20 19:33N 56°58' E 018°33'10 9.7
2014-Jul-20 18:34N 57°05' E 018°45'10 9.7
2014-Jul-20 17:30N 57°13' E 018°57'175 9.7
2014-Jul-19 23:29N 59°20' E 022°47'10 9.7
2014-Jul-19 22:26N 59°24' E 023°06'9 9.6
2014-Jul-19 21:31N 59°27' E 023°22'9 9.8
2014-Jul-19 20:34N 59°31' E 023°39'10 9.9
2014-Jul-19 19:34N 59°34' E 023°57'11 9.8
2014-Jul-19 18:28N 59°38' E 024°17'8 9.0
2014-Jul-19 17:32N 59°42' E 024°32'10 9.8
2014-Jul-19 16:31N 59°44' E 024°51'9 9.7
2014-Jul-19 15:33N 59°44' E 025°10'9 9.2
2014-Jul-19 14:33N 59°44' E 025°28'10 9.7
2014-Jul-19 13:34N 59°44' E 025°47'10 9.9
2014-Jul-19 12:33N 59°44' E 026°07'9 9.4
2014-Jul-19 11:34N 59°41' E 026°24'10 9.6
2014-Jul-19 10:33N 59°32' E 026°33'1 0.5
2014-Jul-19 09:33N 59°32' E 026°33'0 0.0
2014-Jul-19 08:33N 59°32' E 026°33'0 0.0
2014-Jul-19 07:33N 59°32' E 026°33'0 0.0
2014-Jul-19 06:27N 59°32' E 026°33'0 0.0
2014-Jul-19 05:27N 59°32' E 026°33'0 0.0
2014-Jul-19 04:33N 59°32' E 026°33'0 0.0
2014-Jul-19 03:33N 59°32' E 026°33'0 0.0
2014-Jul-19 02:32N 59°32' E 026°33'0 0.0
2014-Jul-19 01:33N 59°32' E 026°33'0 0.0
2014-Jul-19 00:33N 59°32' E 026°33'0 0.0
2014-Jul-18 23:32N 59°32' E 026°33'0 0.0
2014-Jul-18 22:32N 59°32' E 026°33'0 0.0
2014-Jul-18 21:32N 59°32' E 026°33'0 0.0
2014-Jul-18 20:33N 59°32' E 026°33'0 0.0
2014-Jul-18 19:26N 59°32' E 026°33'0 0.0
2014-Jul-18 18:32N 59°32' E 026°33'0 0.0
2014-Jul-18 17:32N 59°32' E 026°33'0 0.0
2014-Jul-18 16:32N 59°32' E 026°33'0 0.0
2014-Jul-18 14:29N 59°32' E 026°33'0 0.0
2014-Jul-18 13:32N 59°32' E 026°33'1 0.6
2014-Jul-18 12:33N 59°32' E 026°33'10 9.8
2014-Jul-18 11:33N 59°41' E 026°25'10 9.7
2014-Jul-18 10:31N 59°45' E 026°07'1010.0
2014-Jul-18 09:33N 59°45' E 025°48'4710.6
2014-Jul-18 05:06N 59°42' E 024°14'610.8
2014-Jul-18 04:33N 59°40' E 024°03'1110.7
2014-Jul-18 03:33N 59°38' E 023°42'1110.6
2014-Jul-18 02:33N 59°41' E 023°22'1110.5
2014-Jul-18 01:33N 59°45' E 023°03'9 9.0
2014-Jul-18 00:33N 59°52' E 022°51'1111.3
2014-Jul-17 23:33N 59°54' E 022°29'  
2014-Jul-15 16:32N 57°28' E 017°52'10 9.8
2014-Jul-15 15:33N 57°20' E 017°45'10 9.7
2014-Jul-15 14:33N 57°11' E 017°39'10 9.7
2014-Jul-15 13:33N 57°01' E 017°33'10 9.8
2014-Jul-15 12:32N 56°52' E 017°26'60 9.8
2014-Jul-15 06:23N 55°60' E 016°33'8 9.3
2014-Jul-15 05:33N 55°56' E 016°21'10 9.7
2014-Jul-15 04:33N 55°51' E 016°07'11 9.4
2014-Jul-15 03:21N 55°46' E 015°49'7 9.3
2014-Jul-15 02:33N 55°42' E 015°38'28 9.4
2014-Jul-14 23:33N 55°28' E 014°55'9 9.4
2014-Jul-14 22:33N 55°23' E 014°40'9 9.2
2014-Jul-14 21:33N 55°16' E 014°30'10 9.1
2014-Jul-14 20:26N 55°08' E 014°19'12 9.5
2014-Jul-14 19:10N 54°60' E 014°04'6 9.6
2014-Jul-14 18:33N 54°57' E 013°55'  

Dump ship's entire track history